Weather observations for the past three days for
Olathe, New Century Aircenter
Metric (Imperial)
Date Time (cdt) Wind (kph) Vis. (km) Weather Sky Cond. Temperature (ºC) Relative Humidity Wind Chill (°C) Heat Index (°C) Pressure Precipitation (cm)
Air Dwpt 6 hour altimeter (cm) sea level (mb) 1 hr 3 hr 6 hr
Max. Min.
31 07:53 S 15 16.09 A Few Clouds FEW110 24.4 17.2 64% 25 76.2 1014.5
31 06:53 S 9 16.09 Fair CLR 22.8 16.7 26.7 22.8 69% 76.15 1013.7
31 05:53 S 15 16.09 Fair CLR 24.4 16.7 62% 25 76.1 1013.1
31 04:53 S 13 16.09 Fair CLR 25 16.7 60% 26 76.07 1012.5
31 03:53 S 15 16.09 Fair CLR 25 16.1 58% 26 76.05 1012.3
31 02:53 S 11 16.09 Fair CLR 25 16.1 58% 26 76.05 1012.3
31 01:53 S 11 16.09 Fair CLR 25.6 16.1 56% 26 76 1011.8
31 00:53 S 11 16.09 Fair CLR 26.7 16.1 35 26.7 52% 27 75.97 1011.4
30 23:53 S 17 16.09 Fair CLR 27.8 16.1 49% 28 75.95 1011.1
30 22:53 S 17 16.09 Fair CLR 28.3 16.7 49% 29 75.97 1011.2
30 21:53 S 17 16.09 Fair CLR 28.3 16.7 49% 29 75.95 1011.1
30 20:53 S 15 16.09 Fair CLR 28.9 16.7 48% 29 75.92 1010.8
30 19:53 S 11 16.09 Fair CLR 31.1 16.7 42% 31 75.87 1010.2
30 18:53 S 20 16.09 Fair CLR 35 16.7 37.8 34.4 34% 35 75.84 1009.7
30 17:53 S 24 G 41 16.09 Fair CLR 36.7 16.1 29% 37 75.82 1009.4
30 16:53 S 24 G 41 16.09 Fair CLR 37.8 16.7 29% 39 75.84 1009.6
30 15:53 S 30 G 41 16.09 Fair CLR 37.2 17.2 31% 38 75.9 1010.2
30 14:53 S 28 G 43 16.09 Fair CLR 37.2 17.8 32% 39 75.92 1010.8
30 13:53 S 26 G 43 16.09 Fair CLR 36.1 18.3 35% 38 75.97 1011.4
30 12:53 S 39 G 48 16.09 Fair and Breezy CLR 34.4 18.3 34.4 23.9 38% 36 76.02 1011.8
30 11:53 S 26 G 41 16.09 Fair CLR 33.3 18.3 41% 34 76.05 1012.4
30 10:53 S 22 G 41 16.09 Fair CLR 30 17.2 46% 30 76.07 1012.7
30 09:53 S 24 16.09 Fair CLR 27.8 16.7 51% 28 76.02 1012.3
30 08:53 S 22 16.09 Fair CLR 26.1 16.7 56% 27 76.07 1012.8
30 07:53 S 19 16.09 Fair CLR 24.4 15.6 58% 26 76.07 1012.9
30 06:53 S 19 16.09 Fair CLR 23.9 15.6 25.6 23.9 60% 25 76.07 1012.8
30 05:53 S 24 16.09 Fair CLR 24.4 15.6 58% 26 76.05 1012.5
30 04:53 S 22 16.09 Fair CLR 24.4 15.6 58% 26 76.05 1012.4
30 03:53 S 19 16.09 Fair CLR 24.4 15.6 58% 26 76.05 1012.4
30 02:53 S 22 16.09 Fair CLR 25 15.6 56% 26 76.05 1012.2
30 01:53 S 15 16.09 Fair CLR 25 15.6 56% 26 76.05 1012.3
30 00:53 S 17 16.09 Fair CLR 25 16.1 33.3 25 58% 26 76.05 1012.5
29 23:53 S 13 16.09 Fair CLR 26.7 16.1 52% 27 76.05 1012.4
29 22:53 S 13 16.09 Fair CLR 26.7 16.7 54% 27 76.05 1012.6
29 21:53 S 11 16.09 Fair CLR 26.7 17.2 56% 27 76.05 1012.5
29 20:53 SE 15 16.09 Fair CLR 28.9 17.2 49% 29 76 1011.9
29 19:53 S 13 16.09 Fair CLR 29.4 18.3 51% 30 75.97 1011.5
29 18:53 S 17 16.09 Fair CLR 33.3 17.2 36.7 33.3 38% 34 75.97 1011.5
29 17:53 S 19 16.09 Fair CLR 35.6 17.2 34% 36 75.97 1011.6
29 16:53 S 22 G 43 16.09 Fair CLR 36.1 17.2 33% 37 76 1011.8
29 15:53 S 24 G 39 16.09 Fair CLR 36.1 17.2 33% 37 76.05 1012.4
29 14:53 S 28 G 44 16.09 Fair CLR 36.1 16.7 32% 37 76.1 1013.0
29 13:53 S 22 G 41 16.09 Fair CLR 35 17.2 35% 36 76.17 1014.0
29 12:53 S 28 G 44 16.09 Fair CLR 33.3 17.2 33.3 18.9 38% 34 76.23 1014.9
29 11:53 S 30 G 41 16.09 Fair CLR 31.1 18.3 46% 32 76.3 1016.0
29 10:53 S 19 G 31 16.09 Fair CLR 28.9 17.8 51% 30 76.33 1016.5
29 09:53 S 22 16.09 Fair CLR 25.6 16.7 58% 26 76.35 1016.7
29 08:53 S 20 16.09 Fair CLR 23.3 15.6 62% 76.38 1017.2
29 07:53 S 17 16.09 Fair CLR 20.6 15 70% 76.38 1017.0
29 06:53 S 17 16.09 Fair CLR 18.9 14.4 22.2 18.9 75% 76.33 1016.6
29 05:53 S 13 16.09 Fair CLR 18.9 14.4 75% 76.33 1016.4
29 04:53 SE 15 16.09 Fair CLR 20 13.9 68% 76.35 1016.5
29 03:53 S 13 16.09 Fair CLR 20 13.9 68% 76.35 1016.8
29 02:53 SE 13 16.09 Fair CLR 21.1 14.4 66% 76.35 1016.8
29 01:53 SE 13 16.09 Fair CLR 21.7 14.4 63% 76.38 1017.1
29 00:53 SE 15 16.09 Fair CLR 22.2 15 29.4 22.2 64% 76.4 1017.4
28 23:53 SE 15 16.09 Fair CLR 22.8 15 62% 76.4 1017.3
28 22:53 SE 11 16.09 Fair CLR 23.3 15 60% 76.4 1017.5
28 21:53 E 13 16.09 Fair CLR 24.4 15.6 58% 26 76.4 1017.4
28 20:53 E 7 16.09 Fair CLR 25.6 15.6 54% 26 76.38 1017.1
28 19:53 E 9 16.09 Fair CLR 27.2 15 47% 27 76.35 1016.7
28 18:53 E 9 16.09 Fair CLR 29.4 15 31.1 28.9 42% 29 76.38 1017.1
28 17:53 SE 13 16.09 Fair CLR 31.1 14.4 36% 31 76.38 1017.1
28 16:53 Calm 16.09 Fair CLR 31.1 14.4 36% 31 76.4 1017.6
28 15:53 SW 9 16.09 Fair CLR 30.6 14.4 37% 30 76.48 1018.3
28 14:53 SE 11 16.09 Fair CLR 30.6 15 39% 30 76.5 1019.0
28 13:53 Vrbl 6 16.09 Fair CLR 29.4 15 42% 29 76.58 1019.7
28 12:53 SE 13 16.09 Fair CLR 28.9 15.6 28.9 18.9 44% 29 76.61 1020.1
28 11:53 SE 9 16.09 Fair CLR 27.8 15 46% 28 76.66 1021.0
28 10:53 SE 13 16.09 Fair CLR 26.7 15 49% 27 76.66 1021.1
28 09:53 SE 9 16.09 Fair CLR 25 16.7 60% 26 76.66 1021.0
Date Time (cdt) Wind (kph) Vis. (km) Weather Sky Cond. Air Dwpt Max. Min. Relative Humidity Wind Chill (°C) Heat Index (°C) altimeter (cm) sea level (mb) 1 hr 3 hr 6 hr
6 hour
Temperature (ºC) Pressure Precipitation (cm)